Time;durP1;ratioP1;P1;durP2;ratioP2;P2;SDS_P1;SDS_P2;PMS_P1;PMS_P2;Temp;Humidity;BMP_temperature;BMP_pressure;BME280_temperature;BME280_humidity;BME280_pressure;Samples;Min_cycle;Max_cycle;Signal;HPM_P1;HPM_P2
2024/01/04 00:02:10;;;;;;;5.93;0.80;;;;;;;;;;4932262;28;20054;-69
2024/01/04 00:04:35;;;;;;;2.13;0.47;;;;;;;;;;4940066;28;20670;-70
2024/01/04 00:07:00;;;;;;;1.60;0.50;;;;;;;;;;4941052;28;20274;-69
2024/01/04 00:09:25;;;;;;;0.40;0.30;;;;;;;;;;4936057;28;20743;-69
2024/01/04 00:11:50;;;;;;;1.27;0.40;;;;;;;;;;4936815;28;20023;-69
2024/01/04 00:14:16;;;;;;;3.57;0.77;;;;;;;;;;4941004;28;20267;-69
2024/01/04 00:16:41;;;;;;;2.80;0.80;;;;;;;;;;4938740;28;20252;-69
2024/01/04 00:19:06;;;;;;;11.53;1.93;;;;;;;;;;4941659;28;20039;-69
2024/01/04 00:21:31;;;;;;;7.87;2.00;;;;;;;;;;4937098;28;20369;-70
2024/01/04 00:23:57;;;;;;;5.73;1.77;;;;;;;;;;4939618;28;20259;-70
2024/01/04 00:26:22;;;;;;;6.43;1.60;;;;;;;;;;4940890;28;20259;-70
2024/01/04 00:28:48;;;;;;;7.35;2.05;;;;;;;;;;4936870;28;20032;-70
2024/01/04 00:31:13;;;;;;;9.47;1.80;;;;;;;;;;4937027;28;20058;-70
2024/01/04 00:33:38;;;;;;;9.80;2.80;;;;;;;;;;4937930;28;20633;-68
2024/01/04 00:36:03;;;;;;;6.13;1.33;;;;;;;;;;4938620;28;20263;-69
2024/01/04 00:38:29;;;;;;;9.20;1.92;;;;;;;;;;4938274;28;20365;-68
2024/01/04 00:40:54;;;;;;;6.10;1.60;;;;;;;;;;4937935;28;20023;-68
2024/01/04 00:43:19;;;;;;;7.30;1.38;;;;;;;;;;4938982;28;20265;-69
2024/01/04 00:45:44;;;;;;;7.47;1.50;;;;;;;;;;4933200;28;20031;-70
2024/01/04 00:48:10;;;;;;;5.97;2.22;;;;;;;;;;4942092;28;20031;-67
2024/01/04 00:50:35;;;;;;;9.00;1.48;;;;;;;;;;4937160;28;20028;-69
2024/01/04 00:53:01;;;;;;;4.95;1.40;;;;;;;;;;4939890;28;20039;-69
2024/01/04 00:55:27;;;;;;;4.20;1.30;;;;;;;;;;4939024;28;20033;-69
2024/01/04 00:57:52;;;;;;;10.35;1.90;;;;;;;;;;4939440;28;20467;-69
2024/01/04 01:00:17;;;;;;;6.68;2.00;;;;;;;;;;4937244;28;20028;-70
2024/01/04 01:02:42;;;;;;;10.98;2.78;;;;;;;;;;4939329;28;20019;-69
2024/01/04 01:05:08;;;;;;;8.00;2.80;;;;;;;;;;4934084;28;20137;-69
2024/01/04 01:07:33;;;;;;;9.93;2.67;;;;;;;;;;4938847;28;20334;-69
2024/01/04 01:09:58;;;;;;;7.33;2.97;;;;;;;;;;4940713;28;20501;-69
2024/01/04 01:12:23;;;;;;;8.03;2.90;;;;;;;;;;4939084;28;20392;-69
2024/01/04 01:14:48;;;;;;;8.50;2.70;;;;;;;;;;4931827;28;20280;-69
2024/01/04 01:17:13;;;;;;;6.72;2.33;;;;;;;;;;4942017;28;20279;-69
2024/01/04 01:19:39;;;;;;;9.48;3.90;;;;;;;;;;4938067;28;20024;-69
2024/01/04 01:22:04;;;;;;;10.57;3.50;;;;;;;;;;4937022;28;20019;-69
2024/01/04 01:24:29;;;;;;;9.90;5.07;;;;;;;;;;4939700;28;20027;-69
2024/01/04 01:26:54;;;;;;;14.53;4.33;;;;;;;;;;4939969;28;20024;-69
2024/01/04 01:29:20;;;;;;;9.65;4.45;;;;;;;;;;4938906;28;20278;-69
2024/01/04 01:31:45;;;;;;;11.15;4.55;;;;;;;;;;4938571;28;20076;-69
2024/01/04 01:34:10;;;;;;;18.73;4.73;;;;;;;;;;4933437;28;20047;-69
2024/01/04 01:36:39;;;;;;;5.43;2.35;;;;;;;;;;4943355;28;20269;-69
2024/01/04 01:39:04;;;;;;;8.25;3.38;;;;;;;;;;4938995;28;20108;-69
2024/01/04 01:41:29;;;;;;;18.43;4.47;;;;;;;;;;4941418;28;20113;-69
2024/01/04 01:43:55;;;;;;;16.45;3.67;;;;;;;;;;4940075;28;20282;-69
2024/01/04 01:46:20;;;;;;;11.97;4.00;;;;;;;;;;4943673;28;20023;-69
2024/01/04 01:48:45;;;;;;;20.85;4.43;;;;;;;;;;4942269;28;20327;-69
2024/01/04 01:51:11;;;;;;;8.60;2.30;;;;;;;;;;4939147;28;20118;-69
2024/01/04 01:53:38;;;;;;;13.55;3.08;;;;;;;;;;4938308;28;20024;-69
2024/01/04 01:56:03;;;;;;;12.57;3.15;;;;;;;;;;4944704;28;20031;-69
2024/01/04 01:58:28;;;;;;;9.90;3.00;;;;;;;;;;4942719;28;20035;-69
2024/01/04 02:00:54;;;;;;;16.95;3.42;;;;;;;;;;4939531;28;20110;-69
2024/01/04 02:03:19;;;;;;;9.95;2.92;;;;;;;;;;4939912;28;20017;-68
2024/01/04 02:05:44;;;;;;;9.13;1.90;;;;;;;;;;4938967;28;20043;-68
2024/01/04 02:08:09;;;;;;;8.93;3.58;;;;;;;;;;4944369;28;20027;-69
2024/01/04 02:10:35;;;;;;;20.00;4.80;;;;;;;;;;4942190;28;20039;-69
2024/01/04 02:13:00;;;;;;;17.50;4.00;;;;;;;;;;4947697;28;20278;-67
2024/01/04 02:15:25;;;;;;;20.63;3.58;;;;;;;;;;4941589;28;20259;-67
2024/01/04 02:17:50;;;;;;;13.17;6.07;;;;;;;;;;4937862;28;20518;-67
2024/01/04 02:20:16;;;;;;;18.75;6.20;;;;;;;;;;4941377;28;20267;-67
2024/01/04 02:22:44;;;;;;;9.88;4.00;;;;;;;;;;4950064;28;20445;-67
2024/01/04 02:25:09;;;;;;;7.80;3.70;;;;;;;;;;4937377;28;20023;-67
2024/01/04 02:27:34;;;;;;;9.90;4.30;;;;;;;;;;4937633;28;20033;-67
2024/01/04 02:30:00;;;;;;;15.23;3.50;;;;;;;;;;4939231;28;20533;-67
2024/01/04 02:32:25;;;;;;;10.45;4.47;;;;;;;;;;4943744;28;20031;-67
2024/01/04 02:34:50;;;;;;;13.57;3.87;;;;;;;;;;4940439;28;20818;-67
2024/01/04 02:37:15;;;;;;;10.67;3.60;;;;;;;;;;4944352;28;20259;-68
2024/01/04 02:39:40;;;;;;;12.10;2.60;;;;;;;;;;4941276;28;20824;-68
2024/01/04 02:42:05;;;;;;;7.65;2.17;;;;;;;;;;4940629;28;20271;-68
2024/01/04 02:44:31;;;;;;;16.85;2.40;;;;;;;;;;4940051;28;20024;-69
2024/01/04 02:46:56;;;;;;;12.10;2.80;;;;;;;;;;4943995;28;20039;-68
2024/01/04 02:49:21;;;;;;;4.43;2.00;;;;;;;;;;4943371;28;20259;-68
2024/01/04 02:51:46;;;;;;;7.40;1.75;;;;;;;;;;4936493;28;20638;-68
2024/01/04 02:54:12;;;;;;;8.93;1.97;;;;;;;;;;4939122;28;20550;-68
2024/01/04 02:56:37;;;;;;;5.60;1.70;;;;;;;;;;4938264;28;20264;-68
2024/01/04 02:59:02;;;;;;;3.20;1.70;;;;;;;;;;4943337;28;20314;-68
2024/01/04 03:01:27;;;;;;;3.80;1.70;;;;;;;;;;4937360;28;20286;-68
2024/01/04 03:03:55;;;;;;;3.45;1.67;;;;;;;;;;4942157;28;20479;-68
2024/01/04 03:06:27;;;;;;;8.95;1.60;;;;;;;;;;4939954;28;20514;-68
2024/01/04 03:08:53;;;;;;;6.70;1.63;;;;;;;;;;4942056;28;20031;-68
2024/01/04 03:11:18;;;;;;;9.48;2.13;;;;;;;;;;4943328;28;20511;-68
2024/01/04 03:13:43;;;;;;;8.00;2.13;;;;;;;;;;4940109;28;20696;-68
2024/01/04 03:16:08;;;;;;;5.63;2.38;;;;;;;;;;4938651;28;20093;-68
2024/01/04 03:18:37;;;;;;;10.00;2.20;;;;;;;;;;4940327;28;20040;-68
2024/01/04 03:21:02;;;;;;;5.53;1.80;;;;;;;;;;4940337;28;20307;-68
2024/01/04 03:23:28;;;;;;;10.85;2.63;;;;;;;;;;4941132;28;20116;-68
2024/01/04 03:25:53;;;;;;;9.43;2.38;;;;;;;;;;4942380;28;20124;-68
2024/01/04 03:28:18;;;;;;;7.32;2.10;;;;;;;;;;4942667;28;20033;-68
2024/01/04 03:30:43;;;;;;;6.47;2.60;;;;;;;;;;4940427;28;20187;-68
2024/01/04 03:33:09;;;;;;;12.87;2.43;;;;;;;;;;4939047;28;20270;-68
2024/01/04 03:35:34;;;;;;;10.90;2.83;;;;;;;;;;4943569;28;20846;-68
2024/01/04 03:37:59;;;;;;;8.27;2.63;;;;;;;;;;4942836;28;20422;-68
2024/01/04 03:40:24;;;;;;;13.37;4.63;;;;;;;;;;4942036;28;20298;-68
2024/01/04 03:42:49;;;;;;;11.57;2.97;;;;;;;;;;4940971;28;20283;-68
2024/01/04 03:45:14;;;;;;;10.37;2.87;;;;;;;;;;4935218;28;20291;-68
2024/01/04 03:47:40;;;;;;;8.17;2.43;;;;;;;;;;4939919;28;20339;-68
2024/01/04 03:50:06;;;;;;;12.98;3.20;;;;;;;;;;4939098;28;20646;-68
2024/01/04 03:52:31;;;;;;;12.88;2.70;;;;;;;;;;4940351;28;20115;-68
2024/01/04 03:54:56;;;;;;;17.23;3.10;;;;;;;;;;4933832;28;20465;-68
2024/01/04 03:57:21;;;;;;;15.00;3.28;;;;;;;;;;4942951;28;20027;-68
2024/01/04 03:59:47;;;;;;;14.47;3.03;;;;;;;;;;4940613;28;20095;-68
2024/01/04 04:02:12;;;;;;;9.60;3.00;;;;;;;;;;4938851;28;20259;-68
2024/01/04 04:04:37;;;;;;;8.73;2.53;;;;;;;;;;4940454;28;20629;-68
2024/01/04 04:07:03;;;;;;;14.43;2.80;;;;;;;;;;4938405;28;20119;-68
2024/01/04 04:09:28;;;;;;;17.83;3.15;;;;;;;;;;4949314;28;20070;-68
2024/01/04 04:11:53;;;;;;;15.35;3.22;;;;;;;;;;4937233;28;20077;-68
2024/01/04 04:14:18;;;;;;;6.73;3.30;;;;;;;;;;4938747;28;20031;-68
2024/01/04 04:16:43;;;;;;;13.37;3.50;;;;;;;;;;4940833;28;20267;-68
2024/01/04 04:19:08;;;;;;;11.23;3.03;;;;;;;;;;4943674;28;20422;-68
2024/01/04 04:21:34;;;;;;;13.37;3.60;;;;;;;;;;4937276;28;20267;-68
2024/01/04 04:23:59;;;;;;;10.70;4.28;;;;;;;;;;4939512;28;20264;-68
2024/01/04 04:26:24;;;;;;;14.30;4.80;;;;;;;;;;4939475;28;20036;-68
2024/01/04 04:28:49;;;;;;;15.63;4.80;;;;;;;;;;4942376;28;20284;-68
2024/01/04 04:31:15;;;;;;;19.67;4.65;;;;;;;;;;4942136;28;20737;-68
2024/01/04 04:33:40;;;;;;;22.02;5.00;;;;;;;;;;4935514;28;20514;-68
2024/01/04 04:36:06;;;;;;;14.65;4.35;;;;;;;;;;4943439;28;20390;-68
2024/01/04 04:38:32;;;;;;;12.80;4.97;;;;;;;;;;4941478;28;20679;-68
2024/01/04 04:40:57;;;;;;;10.00;4.05;;;;;;;;;;4937718;28;20045;-68
2024/01/04 04:43:22;;;;;;;15.37;5.47;;;;;;;;;;4938761;28;20024;-68
2024/01/04 04:45:48;;;;;;;13.90;5.07;;;;;;;;;;4936754;28;20346;-68
2024/01/04 04:48:13;;;;;;;15.40;4.73;;;;;;;;;;4943161;28;20496;-68
2024/01/04 04:50:38;;;;;;;15.00;5.25;;;;;;;;;;4941124;28;20278;-68
2024/01/04 04:53:03;;;;;;;15.37;5.03;;;;;;;;;;4938042;28;20027;-67
2024/01/04 04:55:28;;;;;;;16.48;3.78;;;;;;;;;;4939575;28;20342;-67
2024/01/04 04:57:54;;;;;;;14.53;4.07;;;;;;;;;;4939308;28;20078;-67
2024/01/04 05:00:19;;;;;;;16.00;3.22;;;;;;;;;;4935870;28;20251;-67
2024/01/04 05:02:44;;;;;;;14.43;3.08;;;;;;;;;;4937970;28;20012;-67
2024/01/04 05:05:10;;;;;;;14.50;4.10;;;;;;;;;;4942196;28;20922;-67
2024/01/04 05:07:35;;;;;;;18.93;6.50;;;;;;;;;;4936027;28;20342;-67
2024/01/04 05:10:00;;;;;;;14.73;4.37;;;;;;;;;;4937367;28;20650;-67
2024/01/04 05:12:25;;;;;;;19.23;4.87;;;;;;;;;;4942058;28;20266;-67
2024/01/04 05:14:50;;;;;;;10.90;4.30;;;;;;;;;;4936001;28;20616;-67
2024/01/04 05:17:16;;;;;;;13.48;2.88;;;;;;;;;;4943986;28;20487;-67
2024/01/04 05:19:43;;;;;;;13.93;4.30;;;;;;;;;;4949279;28;20027;-67
2024/01/04 05:22:08;;;;;;;8.40;3.45;;;;;;;;;;4929532;28;20374;-67
2024/01/04 05:24:36;;;;;;;17.07;3.97;;;;;;;;;;4934602;28;20495;-67
2024/01/04 05:27:01;;;;;;;21.02;5.78;;;;;;;;;;4939872;28;20256;-68
2024/01/04 05:29:27;;;;;;;21.63;7.30;;;;;;;;;;4938215;28;20085;-67
2024/01/04 05:31:52;;;;;;;14.18;5.30;;;;;;;;;;4941496;28;20295;-67
2024/01/04 05:34:17;;;;;;;21.97;8.03;;;;;;;;;;4942262;28;20042;-67
2024/01/04 05:36:42;;;;;;;16.43;6.00;;;;;;;;;;4936509;28;20252;-67
2024/01/04 05:39:10;;;;;;;23.67;6.90;;;;;;;;;;4942724;28;20290;-67
2024/01/04 05:41:35;;;;;;;19.90;5.63;;;;;;;;;;4934519;28;20273;-67
2024/01/04 05:44:00;;;;;;;14.23;3.90;;;;;;;;;;4933050;28;20024;-67
2024/01/04 05:46:26;;;;;;;11.40;3.50;;;;;;;;;;4938597;28;21922;-67
2024/01/04 05:48:51;;;;;;;10.05;2.55;;;;;;;;;;4937290;28;20326;-67
2024/01/04 05:51:16;;;;;;;5.47;1.63;;;;;;;;;;4944886;28;20027;-67
2024/01/04 05:53:41;;;;;;;8.68;1.65;;;;;;;;;;4942973;28;20263;-68
2024/01/04 05:56:06;;;;;;;8.27;2.13;;;;;;;;;;4942930;28;20036;-68
2024/01/04 05:58:32;;;;;;;9.07;2.20;;;;;;;;;;4938165;28;20106;-67
2024/01/04 06:00:57;;;;;;;4.83;1.83;;;;;;;;;;4937533;28;20020;-67
2024/01/04 06:03:23;;;;;;;6.28;2.38;;;;;;;;;;4938381;28;20316;-68
2024/01/04 06:05:48;;;;;;;6.40;2.13;;;;;;;;;;4937757;28;20023;-67
2024/01/04 06:08:13;;;;;;;8.87;2.03;;;;;;;;;;4944516;28;20354;-67
2024/01/04 06:10:38;;;;;;;4.07;1.77;;;;;;;;;;4940417;28;20325;-67
2024/01/04 06:13:03;;;;;;;12.70;2.08;;;;;;;;;;4942890;28;20545;-67
2024/01/04 06:15:29;;;;;;;7.93;2.03;;;;;;;;;;4942267;28;20514;-67
2024/01/04 06:17:54;;;;;;;8.18;1.75;;;;;;;;;;4934629;28;20038;-67
2024/01/04 06:20:19;;;;;;;5.20;1.80;;;;;;;;;;4938293;28;20023;-67
2024/01/04 06:22:44;;;;;;;7.65;1.92;;;;;;;;;;4944311;28;20043;-67
2024/01/04 06:25:10;;;;;;;3.67;1.40;;;;;;;;;;4937586;28;20060;-67
2024/01/04 06:27:36;;;;;;;4.40;1.70;;;;;;;;;;4930001;28;20540;-67
2024/01/04 06:30:01;;;;;;;2.90;1.13;;;;;;;;;;4933660;28;20043;-67
2024/01/04 06:32:26;;;;;;;4.57;1.92;;;;;;;;;;4943587;28;20030;-67
2024/01/04 06:34:51;;;;;;;4.22;1.45;;;;;;;;;;4946110;28;20110;-67
2024/01/04 06:37:17;;;;;;;2.33;1.47;;;;;;;;;;4935495;28;20035;-67
2024/01/04 06:39:42;;;;;;;2.83;1.40;;;;;;;;;;4943748;28;20271;-67
2024/01/04 06:42:07;;;;;;;6.07;1.90;;;;;;;;;;4930110;28;20061;-67
2024/01/04 06:44:33;;;;;;;7.15;2.00;;;;;;;;;;4938882;28;20621;-67
2024/01/04 06:46:58;;;;;;;3.25;1.80;;;;;;;;;;4931949;28;20102;-68
2024/01/04 06:49:23;;;;;;;9.30;2.40;;;;;;;;;;4929587;28;20154;-68
2024/01/04 06:51:48;;;;;;;4.90;2.45;;;;;;;;;;4938938;28;20023;-68
2024/01/04 06:54:14;;;;;;;11.03;2.47;;;;;;;;;;4944381;28;20629;-68
2024/01/04 06:56:39;;;;;;;6.67;2.27;;;;;;;;;;4942871;28;20275;-67
2024/01/04 06:59:04;;;;;;;4.03;2.00;;;;;;;;;;4939902;28;20440;-67
2024/01/04 07:01:29;;;;;;;4.13;1.70;;;;;;;;;;4945453;28;20290;-67
2024/01/04 07:03:54;;;;;;;8.77;1.57;;;;;;;;;;4954662;28;20032;-67
2024/01/04 07:06:19;;;;;;;11.87;1.90;;;;;;;;;;4986001;28;20278;-67
2024/01/04 07:08:45;;;;;;;6.37;2.57;;;;;;;;;;4937582;28;20346;-68
2024/01/04 07:11:10;;;;;;;8.20;2.50;;;;;;;;;;4937756;28;20279;-67
2024/01/04 07:13:35;;;;;;;9.83;2.60;;;;;;;;;;4940258;28;20038;-67
2024/01/04 07:16:04;;;;;;;8.48;1.98;;;;;;;;;;4940264;28;20820;-67
2024/01/04 07:18:29;;;;;;;4.07;1.40;;;;;;;;;;4938566;28;20571;-67
2024/01/04 07:20:55;;;;;;;3.95;1.20;;;;;;;;;;4930174;28;20110;-67
2024/01/04 07:23:20;;;;;;;2.45;1.33;;;;;;;;;;4943087;28;20038;-67
2024/01/04 07:25:45;;;;;;;2.55;1.40;;;;;;;;;;4944002;28;20022;-67
2024/01/04 07:28:11;;;;;;;5.33;2.17;;;;;;;;;;4941057;28;20049;-67
2024/01/04 07:30:36;;;;;;;5.85;1.65;;;;;;;;;;4932258;28;20279;-68
2024/01/04 07:33:01;;;;;;;2.58;1.10;;;;;;;;;;4934626;28;20035;-68
2024/01/04 07:35:26;;;;;;;3.85;1.33;;;;;;;;;;4939754;28;20023;-68
2024/01/04 07:37:52;;;;;;;5.07;1.73;;;;;;;;;;4933449;28;20028;-68
2024/01/04 07:40:17;;;;;;;5.30;1.40;;;;;;;;;;4941172;28;20020;-68
2024/01/04 07:42:43;;;;;;;4.60;1.50;;;;;;;;;;4944605;28;20027;-68
2024/01/04 07:45:08;;;;;;;6.63;1.30;;;;;;;;;;4944529;28;20030;-68
2024/01/04 07:47:36;;;;;;;2.42;1.23;;;;;;;;;;4941893;28;20290;-69
2024/01/04 07:50:01;;;;;;;4.32;1.38;;;;;;;;;;4939390;28;20034;-68
2024/01/04 07:52:26;;;;;;;5.47;1.20;;;;;;;;;;4942269;28;21719;-68
2024/01/04 07:54:52;;;;;;;6.70;1.10;;;;;;;;;;4939212;28;20509;-68
2024/01/04 07:57:17;;;;;;;5.90;2.17;;;;;;;;;;4944419;28;20334;-68
2024/01/04 07:59:42;;;;;;;4.73;2.47;;;;;;;;;;4939916;28;20790;-68
2024/01/04 08:02:07;;;;;;;13.13;3.78;;;;;;;;;;4937285;28;20325;-68
2024/01/04 08:04:32;;;;;;;8.33;3.77;;;;;;;;;;4947262;28;20102;-68
2024/01/04 08:06:57;;;;;;;20.13;6.67;;;;;;;;;;4940003;28;20268;-68
2024/01/04 08:09:23;;;;;;;12.90;5.93;;;;;;;;;;4940429;28;20275;-68
2024/01/04 08:11:48;;;;;;;16.25;6.18;;;;;;;;;;4939938;28;20042;-68
2024/01/04 08:14:13;;;;;;;11.32;5.20;;;;;;;;;;4940009;28;20051;-68
2024/01/04 08:16:39;;;;;;;14.38;5.60;;;;;;;;;;4939189;28;20621;-68
2024/01/04 08:19:04;;;;;;;14.80;5.60;;;;;;;;;;4940795;28;20085;-68
2024/01/04 08:21:29;;;;;;;18.50;5.57;;;;;;;;;;4943046;28;20028;-68
2024/01/04 08:23:54;;;;;;;19.92;7.05;;;;;;;;;;4940596;28;20032;-68
2024/01/04 08:26:20;;;;;;;13.52;6.65;;;;;;;;;;4942242;28;20032;-68
2024/01/04 08:28:45;;;;;;;15.18;6.15;;;;;;;;;;4935313;28;20071;-68
2024/01/04 08:31:11;;;;;;;17.42;7.45;;;;;;;;;;4935594;28;20062;-68
2024/01/04 08:33:36;;;;;;;16.92;5.68;;;;;;;;;;4943866;28;20015;-67
2024/01/04 08:36:01;;;;;;;19.05;5.78;;;;;;;;;;4940090;28;20035;-67
2024/01/04 08:38:27;;;;;;;16.35;5.00;;;;;;;;;;4937114;28;20024;-68
2024/01/04 08:40:52;;;;;;;14.75;4.32;;;;;;;;;;4937750;28;20513;-67
2024/01/04 08:43:17;;;;;;;15.10;5.03;;;;;;;;;;4937725;28;20020;-68
2024/01/04 08:45:43;;;;;;;11.45;4.35;;;;;;;;;;4937320;28;20078;-68
2024/01/04 08:48:08;;;;;;;16.95;4.78;;;;;;;;;;4935053;28;20027;-68
2024/01/04 08:50:33;;;;;;;12.00;3.85;;;;;;;;;;4940751;28;20054;-68
2024/01/04 08:52:58;;;;;;;8.57;3.70;;;;;;;;;;4931265;28;20382;-68
2024/01/04 08:55:23;;;;;;;7.33;3.10;;;;;;;;;;4937709;28;20020;-68
2024/01/04 08:57:49;;;;;;;11.10;3.27;;;;;;;;;;4931740;28;20290;-68
2024/01/04 09:00:14;;;;;;;10.88;3.55;;;;;;;;;;4931625;28;20255;-68
2024/01/04 09:02:40;;;;;;;19.33;3.83;;;;;;;;;;4937190;28;20016;-68
2024/01/04 09:05:05;;;;;;;8.98;4.22;;;;;;;;;;4941519;28;20058;-68
2024/01/04 09:07:31;;;;;;;13.82;6.05;;;;;;;;;;4936769;28;20032;-68
2024/01/04 09:09:56;;;;;;;11.93;5.13;;;;;;;;;;4937344;28;20039;-68
2024/01/04 09:12:21;;;;;;;16.67;5.70;;;;;;;;;;4937416;28;20798;-68
2024/01/04 09:14:47;;;;;;;10.80;5.57;;;;;;;;;;4933314;28;20538;-68
2024/01/04 09:17:12;;;;;;;12.85;5.93;;;;;;;;;;4944776;28;20023;-68
2024/01/04 09:19:39;;;;;;;13.05;5.13;;;;;;;;;;4934154;28;20035;-68
2024/01/04 09:22:04;;;;;;;14.20;5.50;;;;;;;;;;4930122;28;20688;-68
2024/01/04 09:24:31;;;;;;;16.13;6.77;;;;;;;;;;4940126;28;20030;-68
2024/01/04 09:26:57;;;;;;;16.17;6.45;;;;;;;;;;4933557;28;20305;-68
2024/01/04 09:29:22;;;;;;;15.80;7.07;;;;;;;;;;4935532;28;20019;-67
2024/01/04 09:31:47;;;;;;;29.00;6.15;;;;;;;;;;4935166;28;20163;-68
2024/01/04 09:34:13;;;;;;;19.42;5.03;;;;;;;;;;4939123;28;20055;-68
2024/01/04 09:36:38;;;;;;;22.63;5.37;;;;;;;;;;4939793;28;20050;-68
2024/01/04 09:39:03;;;;;;;11.75;4.00;;;;;;;;;;4944213;28;20591;-68
2024/01/04 09:41:32;;;;;;;13.63;5.13;;;;;;;;;;4934924;28;20016;-68
2024/01/04 09:44:01;;;;;;;14.65;3.55;;;;;;;;;;4940783;28;20509;-68
2024/01/04 09:46:29;;;;;;;17.25;4.15;;;;;;;;;;4932426;28;20101;-68
2024/01/04 09:48:58;;;;;;;15.68;2.58;;;;;;;;;;4930971;28;20528;-67
2024/01/04 09:51:27;;;;;;;13.65;2.63;;;;;;;;;;4933047;28;20138;-67
2024/01/04 09:53:56;;;;;;;9.98;3.83;;;;;;;;;;4933336;28;20027;-67
2024/01/04 09:56:22;;;;;;;9.63;2.58;;;;;;;;;;4933641;28;20062;-67
2024/01/04 09:58:48;;;;;;;5.75;1.70;;;;;;;;;;4945879;28;20038;-67
2024/01/04 10:01:16;;;;;;;10.02;3.17;;;;;;;;;;4937781;28;20027;-67
2024/01/04 10:03:42;;;;;;;12.18;3.88;;;;;;;;;;4941954;28;20019;-67
2024/01/04 10:06:08;;;;;;;20.05;4.40;;;;;;;;;;4933975;28;20058;-68
2024/01/04 10:08:36;;;;;;;16.52;4.35;;;;;;;;;;4938937;28;20059;-68
2024/01/04 10:11:06;;;;;;;11.43;3.53;;;;;;;;;;4940500;28;20040;-68
2024/01/04 10:13:32;;;;;;;15.80;3.28;;;;;;;;;;4940636;28;20115;-68
2024/01/04 10:15:59;;;;;;;11.50;3.75;;;;;;;;;;4964518;28;20131;-68
2024/01/04 10:18:29;;;;;;;9.73;3.72;;;;;;;;;;4937834;28;20027;-68
2024/01/04 10:20:58;;;;;;;9.65;3.80;;;;;;;;;;4941544;28;20030;-68
2024/01/04 10:23:24;;;;;;;17.42;3.88;;;;;;;;;;4935026;28;20024;-68
2024/01/04 10:25:49;;;;;;;7.72;3.08;;;;;;;;;;4935655;28;20552;-68
2024/01/04 10:28:18;;;;;;;11.90;2.93;;;;;;;;;;4941218;28;20092;-67
2024/01/04 10:30:54;;;;;;;6.00;2.42;;;;;;;;;;4941383;28;20268;-67
2024/01/04 10:33:19;;;;;;;6.88;1.85;;;;;;;;;;4936301;28;20052;-67
2024/01/04 10:35:44;;;;;;;5.43;1.75;;;;;;;;;;4944494;28;20488;-67
2024/01/04 10:38:09;;;;;;;6.13;0.90;;;;;;;;;;4942971;28;20086;-67
2024/01/04 10:40:35;;;;;;;8.50;2.63;;;;;;;;;;4943946;28;20793;-67
2024/01/04 10:43:01;;;;;;;5.05;2.10;;;;;;;;;;4936509;28;20263;-67
2024/01/04 10:45:29;;;;;;;7.85;2.72;;;;;;;;;;4933409;28;20023;-67
2024/01/04 10:47:55;;;;;;;8.57;3.55;;;;;;;;;;4947742;28;20138;-68
2024/01/04 10:50:27;;;;;;;12.98;4.85;;;;;;;;;;4941304;28;20035;-68
2024/01/04 10:52:54;;;;;;;7.80;3.28;;;;;;;;;;4935706;28;20019;-68
2024/01/04 10:55:20;;;;;;;11.82;3.30;;;;;;;;;;4944358;28;20123;-68
2024/01/04 10:57:46;;;;;;;7.00;3.10;;;;;;;;;;4935434;28;20095;-68
2024/01/04 11:00:13;;;;;;;13.88;4.00;;;;;;;;;;4933031;28;20069;-68
2024/01/04 11:02:38;;;;;;;11.02;3.80;;;;;;;;;;4960552;28;20418;-68
2024/01/04 11:05:05;;;;;;;4.63;2.40;;;;;;;;;;4940536;28;20019;-68
2024/01/04 11:07:31;;;;;;;9.13;3.25;;;;;;;;;;4934213;28;20020;-68
2024/01/04 11:09:56;;;;;;;6.07;2.33;;;;;;;;;;4936435;28;20027;-68
2024/01/04 11:12:23;;;;;;;10.23;3.08;;;;;;;;;;4944140;28;20070;-68
2024/01/04 11:14:48;;;;;;;10.27;4.18;;;;;;;;;;4946469;28;20109;-68
2024/01/04 11:17:22;;;;;;;20.37;4.37;;;;;;;;;;4932142;28;20089;-68
2024/01/04 11:20:08;;;;;;;6.50;1.70;;;;;;;;;;4948523;28;20289;-68
2024/01/04 11:22:47;;;;;;;13.07;2.40;;;;;;;;;;4936239;28;20056;-68
2024/01/04 11:25:26;;;;;;;6.65;2.25;;;;;;;;;;4931459;28;20466;-68
2024/01/04 11:27:51;;;;;;;6.72;1.48;;;;;;;;;;4941187;28;20434;-68
2024/01/04 11:30:17;;;;;;;3.17;1.08;;;;;;;;;;4986006;28;20104;-68
2024/01/04 11:32:45;;;;;;;6.18;1.52;;;;;;;;;;4971174;28;20506;-68
2024/01/04 11:35:13;;;;;;;1.65;0.60;;;;;;;;;;4933978;28;20638;-68
2024/01/04 11:37:38;;;;;;;6.60;1.92;;;;;;;;;;4945764;28;20056;-68
2024/01/04 11:40:06;;;;;;;17.77;2.72;;;;;;;;;;4932414;28;20074;-68
2024/01/04 11:42:35;;;;;;;18.00;3.15;;;;;;;;;;4948906;28;20052;-68
2024/01/04 11:45:04;;;;;;;7.47;2.10;;;;;;;;;;4937527;28;20035;-68
2024/01/04 11:47:33;;;;;;;10.40;2.78;;;;;;;;;;4937984;28;20030;-68
2024/01/04 11:49:59;;;;;;;14.75;3.53;;;;;;;;;;4938738;28;20027;-68
2024/01/04 11:52:26;;;;;;;17.27;4.20;;;;;;;;;;4938421;28;20046;-68
2024/01/04 11:54:52;;;;;;;18.00;2.90;;;;;;;;;;4944027;28;20050;-68
2024/01/04 11:57:18;;;;;;;11.90;3.30;;;;;;;;;;4946831;28;20019;-68
2024/01/04 11:59:43;;;;;;;19.30;3.90;;;;;;;;;;4937575;28;20384;-68
2024/01/04 12:02:15;;;;;;;27.80;4.68;;;;;;;;;;4947614;28;20017;-68
2024/01/04 12:04:41;;;;;;;28.10;3.17;;;;;;;;;;4977233;28;20479;-68
2024/01/04 12:07:07;;;;;;;10.65;3.65;;;;;;;;;;4944687;28;20035;-68
2024/01/04 12:09:32;;;;;;;23.60;3.90;;;;;;;;;;4937824;28;20051;-68
2024/01/04 12:11:57;;;;;;;9.63;2.97;;;;;;;;;;4935115;28;20105;-68
2024/01/04 12:14:22;;;;;;;15.85;2.70;;;;;;;;;;4937989;28;20255;-68
2024/01/04 12:16:48;;;;;;;18.92;2.60;;;;;;;;;;4933196;28;20119;-68
2024/01/04 12:19:13;;;;;;;20.02;4.70;;;;;;;;;;4946529;28;20028;-68
2024/01/04 12:21:38;;;;;;;24.53;3.27;;;;;;;;;;4935266;28;20038;-68
2024/01/04 12:24:04;;;;;;;9.30;3.03;;;;;;;;;;4964037;28;20251;-68
2024/01/04 12:26:29;;;;;;;20.30;2.55;;;;;;;;;;4939024;28;20723;-68
2024/01/04 12:28:56;;;;;;;20.05;3.55;;;;;;;;;;4951155;28;20517;-68
2024/01/04 12:31:22;;;;;;;18.00;3.83;;;;;;;;;;4947293;28;20055;-69
2024/01/04 12:33:50;;;;;;;25.15;3.33;;;;;;;;;;4933412;28;20070;-68
2024/01/04 12:36:18;;;;;;;12.57;3.42;;;;;;;;;;4945884;28;20457;-69
2024/01/04 12:38:44;;;;;;;24.77;3.72;;;;;;;;;;4933856;28;20111;-68
2024/01/04 12:41:09;;;;;;;29.98;2.90;;;;;;;;;;4933851;28;20159;-68
2024/01/04 12:43:36;;;;;;;24.90;4.13;;;;;;;;;;4930929;28;20019;-68
2024/01/04 12:46:05;;;;;;;19.35;4.00;;;;;;;;;;4939455;28;20031;-68
2024/01/04 12:48:30;;;;;;;13.50;3.53;;;;;;;;;;4940858;28;20032;-68
2024/01/04 12:51:05;;;;;;;17.75;2.80;;;;;;;;;;4952231;28;20027;-68
2024/01/04 12:53:30;;;;;;;18.60;2.35;;;;;;;;;;4930909;28;20027;-68
2024/01/04 12:55:56;;;;;;;14.87;3.13;;;;;;;;;;4962470;28;20035;-68
2024/01/04 12:58:22;;;;;;;17.58;2.75;;;;;;;;;;4931777;28;20283;-68
2024/01/04 13:00:48;;;;;;;21.95;4.07;;;;;;;;;;4935708;28;20035;-68
2024/01/04 13:03:13;;;;;;;24.25;3.05;;;;;;;;;;4936912;28;20024;-68
2024/01/04 13:05:38;;;;;;;22.23;3.90;;;;;;;;;;4932366;28;20379;-69
2024/01/04 13:08:03;;;;;;;25.27;4.73;;;;;;;;;;4932960;28;20306;-68
2024/01/04 13:10:30;;;;;;;20.80;3.85;;;;;;;;;;4931970;28;20256;-68
2024/01/04 13:12:55;;;;;;;28.90;4.10;;;;;;;;;;4933283;28;20074;-68
2024/01/04 13:15:20;;;;;;;29.07;3.97;;;;;;;;;;4948281;28;20059;-68
2024/01/04 13:17:46;;;;;;;26.92;4.38;;;;;;;;;;4931494;28;20268;-68
2024/01/04 13:20:12;;;;;;;28.48;4.22;;;;;;;;;;4932849;28;20020;-68
2024/01/04 13:22:37;;;;;;;28.77;4.03;;;;;;;;;;4937270;28;20008;-68
2024/01/04 13:25:02;;;;;;;21.05;3.58;;;;;;;;;;4947625;28;20509;-68
2024/01/04 13:27:28;;;;;;;16.63;3.22;;;;;;;;;;4930663;28;20016;-68
2024/01/04 13:29:54;;;;;;;26.67;4.63;;;;;;;;;;4933812;28;20418;-68
2024/01/04 13:32:19;;;;;;;19.13;4.10;;;;;;;;;;4933309;28;20321;-68
2024/01/04 13:34:44;;;;;;;25.73;4.23;;;;;;;;;;4951922;28;20529;-68
2024/01/04 13:37:09;;;;;;;17.03;3.30;;;;;;;;;;4947943;28;20279;-68
2024/01/04 13:39:35;;;;;;;21.63;4.63;;;;;;;;;;4989948;28;20639;-68
2024/01/04 13:42:00;;;;;;;15.38;3.70;;;;;;;;;;4969494;28;20027;-68
2024/01/04 13:44:25;;;;;;;18.08;3.28;;;;;;;;;;4933549;28;20093;-68
2024/01/04 13:46:50;;;;;;;26.03;5.17;;;;;;;;;;4934257;28;20449;-68
2024/01/04 13:49:15;;;;;;;27.37;4.47;;;;;;;;;;4940045;28;20267;-68
2024/01/04 13:51:44;;;;;;;18.80;4.50;;;;;;;;;;4933087;28;20282;-68
2024/01/04 13:54:11;;;;;;;23.95;3.67;;;;;;;;;;4962164;28;20263;-68
2024/01/04 13:56:37;;;;;;;23.17;2.97;;;;;;;;;;4936764;28;20023;-68
2024/01/04 13:59:02;;;;;;;15.73;2.45;;;;;;;;;;4939275;28;20061;-68
2024/01/04 14:01:27;;;;;;;20.33;2.00;;;;;;;;;;4936155;28;20434;-68
2024/01/04 14:03:52;;;;;;;11.05;2.35;;;;;;;;;;4937129;28;20042;-68
2024/01/04 14:06:18;;;;;;;23.53;2.90;;;;;;;;;;4940723;28;20110;-68
2024/01/04 14:08:45;;;;;;;17.33;2.50;;;;;;;;;;4932770;28;20341;-68
2024/01/04 14:11:10;;;;;;;23.38;3.90;;;;;;;;;;4942575;28;20035;-68
2024/01/04 14:13:35;;;;;;;15.73;2.70;;;;;;;;;;4934108;28;20023;-68
2024/01/04 14:16:02;;;;;;;15.45;1.90;;;;;;;;;;4936538;28;20027;-68
2024/01/04 14:18:28;;;;;;;19.50;3.15;;;;;;;;;;4983227;28;20066;-68
2024/01/04 14:20:53;;;;;;;3.40;0.90;;;;;;;;;;4932140;28;20047;-68
2024/01/04 14:23:18;;;;;;;14.38;3.20;;;;;;;;;;4932467;28;20639;-68
2024/01/04 14:25:44;;;;;;;8.90;2.10;;;;;;;;;;4940411;28;20151;-68
2024/01/04 14:28:09;;;;;;;19.03;2.30;;;;;;;;;;4941149;28;20031;-68